Ricardo Dest

Recruteur - FC Dallas
9 Sept 2027
Jeudi
Processus

Personnalité

Adaptabilité (4) Ambition (8) Controverse (14) Loyauté (12) Pression (11) Professionnalisme (14) Sportivité (14) Tempérament (11)

Profil

Style d'entraînement Démocratique
Diplôme National A
Détermination 7
Gestion des joueurs 4
Motivation 4
Discipline 6
Satisfaction professionnelle
100%
Fatigue
0%
Rôle Recruteur
Salaire 15.3K p/s
Contrat 14.03.2030

Performance

Comportement Bon
Efficacité de l'entraînement
38%
Développement des joueurs
65%
Prévention des blessures
45%
Mise en place tactique
20%

Événements récents

A participé à une réunion de recrutement 7j
A participé à une réunion de recrutement 7j
A participé à une réunion de recrutement 14j
A participé à une réunion de recrutement 14j
A participé à une réunion de recrutement 21j
A participé à une réunion de recrutement 21j
A participé à une réunion de recrutement 28j
Anniversaire 28j

Suivi en cours

117
Joueur Club Statut Capacité Confiance Observé Dernière observation Dernier vote
João Peglow DC United Actif 106 / 118 58% 1 29.03.2027 -
Antony Portland Timbers Actif 123 / 139 58% 1 22.03.2027 -
Shea Charles Southampton Actif 137 / 140 40% 1 13.02.2027 -
Tshepang Moremi Orlando Pirates Actif 122 / 104 40% 1 11.02.2027 -
Cian Ashford Cardiff City Actif 123 / 114 40% 1 11.02.2027 -
Cameron Archer Southampton Actif 135 / 133 40% 1 11.02.2027 -
Tyreece Campbell Charlton Athletic Actif 108 / 122 40% 1 10.02.2027 -
Malick Fofana Sunderland Actif 133 / 154 40% 1 08.02.2027 -
Othmane Maamma Watford Actif 129 / 126 40% 1 08.02.2027 -
Ben Cisse AFC Wimbledon Actif 81 / 87 40% 1 08.02.2027 -
Jack Austin Chelsea Actif 73 / 83 40% 1 08.02.2027 -
Anestis Mythou PAOK Actif 102 / 94 40% 1 07.02.2027 -
Mohamed-Ali Cho Hull City Actif 137 / 126 40% 2 06.02.2027 -
Pelle Mattsson Norwich City Actif 126 / 134 40% 1 06.02.2027 -
Armando Broja Burnley Actif 131 / 136 40% 1 06.02.2027 -
Carlos Vicente Birmingham Actif 151 / 134 40% 1 05.02.2027 -
Igor Burnley Actif 148 / 149 40% 1 05.02.2027 -
Nordi Mukiele Sunderland Actif 151 / 150 40% 1 03.02.2027 -
Siyanda Ndlovu Bloemfontein Celtic Actif 111 / 108 40% 1 03.02.2027 -
Malik Mothersille Stockport County Actif 103 / 124 40% 1 02.02.2027 -
Joel McGregor Swindon Town Actif 91 / 91 40% 1 01.02.2027 -
James Dornelly Peterborough United Actif 110 / 111 40% 1 01.02.2027 -
Mathias Jørgensen Blackburn Rovers Actif 109 / 120 40% 1 31.01.2027 -
Gonzalo Fulham Actif 148 / 151 40% 1 31.01.2027 -
Archie Collins Peterborough United Actif 113 / 117 40% 1 30.01.2027 -
Jacques Ekomié Wrexham Actif 125 / 123 40% 1 30.01.2027 -
Marezi Portsmouth Actif 128 / 125 40% 1 30.01.2027 -
Dom Ballard Leyton Orient Actif 117 / 129 40% 1 30.01.2027 -
Jayden Wareham Barnet Actif 94 / 102 40% 1 29.01.2027 -
Evidence Makgopa Orlando Pirates Actif 99 / 99 40% 1 29.01.2027 -
Gonçalo Silva Porto Actif 83 / 90 40% 1 28.01.2027 -
Benjamin Twum Neftchi Actif 77 / 81 40% 1 27.01.2027 -
Patrick Maswanganyi Orlando Pirates Actif 107 / 127 40% 1 25.01.2027 -
Luis Vázquez Birmingham Actif 131 / 120 40% 1 24.01.2027 -
Georginio Rutter Brighton Actif 149 / 146 40% 1 24.01.2027 -
Will Lankshear Middlesbrough Actif 116 / 132 40% 1 23.01.2027 -
Talles Magno Wolverhampton Actif 131 / 122 40% 1 23.01.2027 -
Mfundo Vilakazi Kaizer Chiefs Actif 119 / 110 40% 1 22.01.2027 -
Ramahlwe Vilakazi Free State Stars Actif 106 / 119 40% 1 19.01.2027 -
Robert Mizo Ashanti Gold Actif 106 / 92 40% 2 18.01.2027 -
Hassan Beja AFC Leopards Actif 75 / 79 40% 1 17.01.2027 -
Lewys Benjamin Wolverhampton Actif 76 / 77 40% 1 16.01.2027 -
Kwame Opoku Asante Kotoko Actif 99 / 95 40% 2 14.01.2027 -
Sagir Arce Paralimni Actif 84 / 105 40% 1 14.01.2027 -
Luca Martelli Forli Actif 92 / 86 40% 1 14.01.2027 -
Bernard Sulemana Hasaacas Actif 91 / 102 40% 1 14.01.2027 -
Giacomo Raspadori Atalanta Actif 138 / 152 40% 2 12.01.2027 -
Jens Odgaard Bologna Actif 133 / 136 40% 1 12.01.2027 -
Tyreece Simpson Maritzburg United Actif 98 / 102 40% 1 12.01.2027 -
Ruben van Bommel Ferencvaros Actif 135 / 147 40% 1 10.01.2027 -
Dean Erasmus Platinum Stars Actif 90 / 93 40% 2 08.01.2027 -
Nikita Kakkoev Nizhniy Novgorod Actif 121 / 124 40% 1 08.01.2027 -
Kai Enslin Charlton Athletic Actif 92 / 99 40% 1 05.01.2027 -
Marquinhos APOEL Actif 137 / 121 40% 1 04.01.2027 -
Marcelo Allende Mamelodi Sundowns Actif 116 / 127 40% 1 04.01.2027 -
Josh King Chelsea Actif 126 / 147 40% 1 02.01.2027 -
Jovon Makama Norwich City Actif 112 / 116 40% 1 31.12.2026 -
Simone Canestrelli Pisa Actif 126 / 134 40% 1 31.12.2026 -
Jacques Siwe Rubin Actif 122 / 120 40% 4 29.12.2026 -
Isaac Essien WAFA Actif 90 / 98 40% 3 29.12.2026 -
Ishmael Addo Heart of Lions Actif 80 / 80 40% 1 29.12.2026 -
Nathan Ordaz Metalist Actif 101 / 109 40% 2 26.12.2026 -
Femi Seriki Sheffield United Actif 135 / 118 40% 2 26.12.2026 -
Monty Batlhabane Polokwane City Actif 84 / 110 40% 1 26.12.2026 -
Percy Jali Free State Stars Actif 87 / 100 40% 2 25.12.2026 -
Mandla Erasmus SuperSport United Actif 116 / 113 40% 2 22.12.2026 -
Endrick Real Madrid Actif 141 / 158 40% 1 22.12.2026 -
Nicholas Ablido Great Olympics Actif 91 / 99 40% 1 20.12.2026 -
Kwadwo Obeng Junior Heart of Lions Actif 80 / 87 40% 1 18.12.2026 -
Williams Manyama SuperSport United Actif 123 / 129 40% 1 18.12.2026 -
João Gomes Aston Villa Actif 132 / 148 40% 1 18.12.2026 -
Alexandr Chernikov Krasnodar Actif 132 / 145 40% 1 17.12.2026 -
Eren Aydın Zira Actif 115 / 97 40% 1 16.12.2026 -
Williams Mothiba Black Aces Actif 73 / 102 40% 1 15.12.2026 -
Tom Norcott Reading Actif 79 / 80 40% 1 15.12.2026 -
Martín Garay Tigre Actif 115 / 127 40% 1 12.12.2026 -
Nobel Mendy Hull City Actif 126 / 130 40% 1 10.12.2026 -
Thulani Dala Platinum Stars Actif 85 / 112 40% 1 10.12.2026 -
Luciano Gondou CSKA Moscow Actif 121 / 117 40% 1 08.12.2026 -
Jerome Karelse Golden Arrows Actif 116 / 85 40% 1 08.12.2026 -
Kenan Dervišagić Floriana Actif 102 / 107 40% 1 07.12.2026 -
Everton Bala Levski Actif 123 / 122 40% 2 06.12.2026 -
Yaw Mensah Hasaacas Actif 81 / 85 40% 1 05.12.2026 -
Etiosa Ighodaro Kaizer Chiefs Actif 100 / 124 40% 3 04.12.2026 -
Bongani Mothiba SuperSport United Actif 81 / 73 40% 2 04.12.2026 -
Yaroslav Gladyshev Dinamo Moscow Actif 116 / 120 40% 1 29.11.2026 -
Brayan León Mamelodi Sundowns Actif 122 / 121 40% 4 28.11.2026 -
Lee Bonis Chesterfield Actif 95 / 104 40% 1 22.11.2026 -
Pedro Cejas Zabbar St. Patrick Actif 92 / 97 40% 1 19.11.2026 -
Milán Tóth Vasas Actif 106 / 101 40% 1 18.11.2026 -
Ammar Ramadan DAC Dunajska Streda Actif 121 / 128 40% 1 16.11.2026 -
Aidomo Emakhu Oxford United Actif 120 / 121 40% 1 16.11.2026 -
Bojan Radulović Huddersfield Town Actif 111 / 119 40% 1 15.11.2026 -
Rahim Ibrahim Slovan Bratislava Actif 137 / 136 40% 1 09.11.2026 -
Samuel Anakwe Remo Stars Actif 88 / 97 40% 2 06.11.2026 -
Nicolás Fernández Mercau Shakhtar Actif 144 / 146 40% 1 05.11.2026 -
Teboho Mabunda SuperSport United Actif 129 / 113 40% 1 03.11.2026 -
Conrad Wallem Austria Wien Actif 135 / 123 40% 1 02.11.2026 -
Joseph Atule Barau Actif 102 / 96 40% 1 31.10.2026 -
Louis Munteanu DC United Actif 121 / 122 40% 1 26.10.2026 Plus d'infos
Peter Christiansen Viking Actif 139 / 132 40% 1 26.10.2026 -
James Emo Rangers International Actif 80 / 82 40% 2 22.10.2026 -
Daouda Sidibé Aduana Stars Actif 90 / 90 40% 1 21.10.2026 -
Lewis McCann Fleetwood Town Actif 109 / 98 40% 1 17.10.2026 -
Oke Kayode Bendel Insurance Actif 87 / 93 40% 1 16.10.2026 -
Samuel Ssenyonjo AFC Leopards Actif 72 / 76 40% 1 16.10.2026 -
Facundo Mura Inter Miami CF Actif 120 / 128 40% 1 13.10.2026 -
Timothy Zechariah Rivers United Actif 105 / 102 40% 1 11.10.2026 -
Theo Corbeanu Toronto FC Actif 118 / 115 40% 1 11.10.2026 -
Ho-yeon Jung Minnesota United FC Actif 128 / 120 40% 1 09.10.2026 -
Stijn Spierings Real Salt Lake Actif 130 / 116 40% 1 09.10.2026 -
Tomás Chancalay Minnesota United FC Actif 128 / 121 40% 1 08.10.2026 -
Louis Appéré Cambridge United Actif 106 / 87 40% 1 06.10.2026 -
Marcelo Saracchi Houston Dynamo Actif 131 / 120 40% 2 05.10.2026 -
Bathusi Aubaas Mamelodi Sundowns Actif 118 / 103 40% 1 12.09.2026 -
Braian Ojeda Orlando City Actif 126 / 117 40% 1 09.09.2026 -
David Brekalo Orlando City Actif 125 / 128 40% 1 08.09.2026 -